createdAt,value
2023-03-04T00:02:42.627Z,47.60
2023-03-04T00:08:46.428Z,44.20
2023-03-04T00:14:49.577Z,46.40
2023-03-04T00:17:51.277Z,46.60
2023-03-04T00:20:52.925Z,50.40
2023-03-04T00:23:54.624Z,48.80
2023-03-04T00:26:56.400Z,47.40
2023-03-04T00:29:57.923Z,47.00
2023-03-04T00:33:02.669Z,46.30
2023-03-04T00:36:04.830Z,45.00
2023-03-04T00:39:06.381Z,43.80
2023-03-04T00:42:07.934Z,44.50
2023-03-04T00:45:10.217Z,43.80
2023-03-04T00:48:11.879Z,44.00
2023-03-04T00:51:13.428Z,45.10
2023-03-04T00:54:15.075Z,49.30
2023-03-04T00:57:16.763Z,46.50
2023-03-04T01:00:18.665Z,44.80
2023-03-04T01:03:20.283Z,45.60
2023-03-04T01:06:22.218Z,45.30
2023-03-04T01:09:24.001Z,41.70
2023-03-04T01:12:26.194Z,41.30
2023-03-04T01:18:29.402Z,39.20
2023-03-04T01:21:31.010Z,39.30
2023-03-04T01:24:32.787Z,39.60
2023-03-04T01:30:36.147Z,37.80
2023-03-04T01:33:38.167Z,42.50
2023-03-04T01:36:39.783Z,37.90
2023-03-04T01:39:41.398Z,41.00
2023-03-04T01:42:43.867Z,39.70
2023-03-04T01:45:47.492Z,38.50
2023-03-04T01:48:49.227Z,40.90
2023-03-04T01:51:53.276Z,39.70
2023-03-04T01:54:55.503Z,42.00
2023-03-04T01:57:57.220Z,40.70
2023-03-04T02:00:59.207Z,37.80
2023-03-04T02:04:00.795Z,40.10
2023-03-04T02:07:03.830Z,37.80
2023-03-04T02:10:06.108Z,36.10
2023-03-04T02:13:07.798Z,38.30
2023-03-04T02:16:09.466Z,37.20
2023-03-04T02:19:20.474Z,38.20
2023-03-04T02:22:22.218Z,37.50
2023-03-04T02:25:30.500Z,38.10
2023-03-04T02:28:31.990Z,37.10
2023-03-04T02:31:40.326Z,37.20
2023-03-04T02:34:47.537Z,34.00
2023-03-04T02:37:49.169Z,38.80
2023-03-04T02:43:54.820Z,34.00
2023-03-04T02:46:57.144Z,33.10
2023-03-04T02:49:58.773Z,34.70
2023-03-04T02:53:00.412Z,36.10
2023-03-04T02:56:02.145Z,37.00
2023-03-04T02:59:03.699Z,35.70
2023-03-04T03:02:06.689Z,36.00
2023-03-04T03:05:08.329Z,37.80
2023-03-04T03:08:10.042Z,33.60
2023-03-04T03:11:11.674Z,36.70
2023-03-04T03:14:13.527Z,32.70
2023-03-04T03:20:18.029Z,30.70
2023-03-04T03:23:19.770Z,32.40
2023-03-04T03:26:21.650Z,33.50
2023-03-04T03:29:23.249Z,33.60
2023-03-04T03:32:25.076Z,33.20
2023-03-04T03:35:26.923Z,30.80
2023-03-04T03:41:30.121Z,28.90
2023-03-04T03:44:31.972Z,30.20
2023-03-04T03:50:35.431Z,31.70
2023-03-04T03:53:40.217Z,31.80
2023-03-04T03:56:41.787Z,29.20
2023-03-04T03:59:43.425Z,30.40
2023-03-04T04:02:45.220Z,28.60
2023-03-04T04:05:46.967Z,30.00
2023-03-04T04:08:48.644Z,30.00
2023-03-04T04:14:51.821Z,30.50
2023-03-04T04:17:53.386Z,29.70
2023-03-04T04:20:55.176Z,30.70
2023-03-04T04:23:56.855Z,28.20
2023-03-04T04:26:58.506Z,29.40
2023-03-04T04:30:00.211Z,29.00
2023-03-04T04:36:04.354Z,30.00
2023-03-04T04:39:06.168Z,32.60
2023-03-04T04:42:10.650Z,32.70
2023-03-04T04:45:12.574Z,30.70
2023-03-04T04:48:14.222Z,37.10
2023-03-04T04:51:16.082Z,41.30
2023-03-04T04:57:19.409Z,34.40
2023-03-04T05:00:21.354Z,36.40
2023-03-04T05:03:23.708Z,34.40
2023-03-04T05:06:26.030Z,36.80
2023-03-04T05:09:27.626Z,37.10
2023-03-04T05:12:29.317Z,39.60
2023-03-04T05:15:30.922Z,36.60
2023-03-04T05:18:32.721Z,37.10
2023-03-04T05:24:35.936Z,34.30
2023-03-04T05:27:37.580Z,36.30
2023-03-04T05:30:40.501Z,36.60
2023-03-04T05:33:42.076Z,40.60
2023-03-04T05:36:43.786Z,37.80
2023-03-04T05:39:45.401Z,39.10
2023-03-04T05:42:47.206Z,39.00
2023-03-04T05:51:53.145Z,37.20
2023-03-04T05:54:54.795Z,37.20
2023-03-04T05:57:57.227Z,37.40
2023-03-04T06:01:02.640Z,39.40
2023-03-04T06:04:04.846Z,39.90
2023-03-04T06:07:06.586Z,42.10
2023-03-04T06:13:10.622Z,41.40
2023-03-04T06:16:12.293Z,39.00
2023-03-04T06:22:15.493Z,36.60
2023-03-04T06:25:17.099Z,39.70
2023-03-04T06:28:18.660Z,38.80
2023-03-04T06:31:20.388Z,40.40
2023-03-04T06:37:23.886Z,39.20
2023-03-04T06:40:25.467Z,36.80
2023-03-04T06:43:27.072Z,35.00
2023-03-04T06:46:30.467Z,36.50
2023-03-04T06:49:32.507Z,35.40
2023-03-04T06:55:35.738Z,32.10
2023-03-04T07:01:39.354Z,33.70
2023-03-04T07:04:41.150Z,33.90
2023-03-04T07:10:44.335Z,34.20
2023-03-04T07:13:46.487Z,35.90
2023-03-04T07:16:48.135Z,38.20
2023-03-04T07:22:51.460Z,37.90
2023-03-04T07:25:53.533Z,37.40
2023-03-04T07:28:55.028Z,37.50
2023-03-04T07:31:56.794Z,38.10
2023-03-04T07:34:58.517Z,37.60
2023-03-04T07:38:00.287Z,39.70
2023-03-04T07:41:02.660Z,41.70
2023-03-04T07:44:05.073Z,42.00
2023-03-04T07:47:06.739Z,45.60
2023-03-04T07:50:09.918Z,42.00
2023-03-04T07:53:11.558Z,40.90
2023-03-04T07:59:15.987Z,41.90
2023-03-04T08:02:17.725Z,43.00
2023-03-04T08:05:19.461Z,41.40
2023-03-04T08:08:21.074Z,38.80
2023-03-04T08:11:22.764Z,40.40
2023-03-04T08:14:24.454Z,40.00
2023-03-04T08:17:26.455Z,43.50
2023-03-04T08:20:28.105Z,43.50
2023-03-04T08:23:29.705Z,43.20
2023-03-04T08:26:39.745Z,43.20
2023-03-04T08:29:42.326Z,43.60
2023-03-04T08:32:44.034Z,41.80
2023-03-04T08:38:47.784Z,44.90
2023-03-04T08:41:49.393Z,49.90
2023-03-04T08:44:51.014Z,47.90
2023-03-04T08:47:52.635Z,47.20
2023-03-04T08:50:54.197Z,43.80
2023-03-04T08:53:55.893Z,44.30
2023-03-04T08:56:57.608Z,38.50
2023-03-04T08:59:59.399Z,41.80
2023-03-04T09:03:01.018Z,41.30
2023-03-04T09:06:04.220Z,39.50
2023-03-04T09:09:05.780Z,41.90
2023-03-04T09:12:08.064Z,43.70
2023-03-04T09:15:11.988Z,45.70
2023-03-04T09:18:14.732Z,43.60
2023-03-04T09:21:16.441Z,45.80
2023-03-04T09:27:19.801Z,49.00
2023-03-04T09:30:21.659Z,48.90
2023-03-04T09:36:25.067Z,48.50
2023-03-04T09:39:26.730Z,51.60
2023-03-04T09:42:37.278Z,47.90
2023-03-04T09:45:44.294Z,48.30
2023-03-04T09:48:52.423Z,44.50
2023-03-04T09:52:05.271Z,47.00
2023-03-04T09:55:22.109Z,44.70
2023-03-04T09:58:38.846Z,44.00
2023-03-04T10:01:50.101Z,43.30
2023-03-04T10:04:53.567Z,44.20
2023-03-04T10:07:58.586Z,44.10
2023-03-04T10:11:01.762Z,40.50
2023-03-04T10:14:20.406Z,42.40
2023-03-04T10:17:27.013Z,40.10
2023-03-04T10:20:38.878Z,39.10
2023-03-04T10:26:45.089Z,38.40
2023-03-04T10:29:48.947Z,37.50
2023-03-04T10:32:50.940Z,38.20
2023-03-04T10:36:24.191Z,39.70
2023-03-04T10:39:38.545Z,38.50
2023-03-04T10:42:40.271Z,38.10
2023-03-04T10:48:43.699Z,38.70
2023-03-04T10:54:50.572Z,44.70
2023-03-04T10:57:58.059Z,44.70
2023-03-04T11:01:05.828Z,45.80
2023-03-04T11:04:17.461Z,44.40
2023-03-04T11:07:20.794Z,42.10
2023-03-04T11:10:28.416Z,42.50
2023-03-04T11:13:31.972Z,41.90
2023-03-04T11:16:33.603Z,43.40
2023-03-04T11:22:42.055Z,46.50
2023-03-04T11:25:47.604Z,48.80
2023-03-04T11:29:14.493Z,48.80
2023-03-04T11:32:37.320Z,45.30
2023-03-04T11:36:08.388Z,46.70
2023-03-04T11:39:17.647Z,49.10
2023-03-04T11:42:42.903Z,45.90
2023-03-04T11:46:02.605Z,46.40
2023-03-04T11:49:25.353Z,45.90
2023-03-04T11:52:49.345Z,45.70
2023-03-04T11:56:08.778Z,47.60
2023-03-04T11:59:34.394Z,49.90
2023-03-04T12:02:59.566Z,45.30
2023-03-04T12:06:38.629Z,46.20
2023-03-04T12:09:57.284Z,41.10
2023-03-04T12:13:14.158Z,46.00
2023-03-04T12:16:34.803Z,42.50
2023-03-04T12:19:59.030Z,40.60
2023-03-04T12:23:12.032Z,40.30
2023-03-04T12:26:24.690Z,40.00
2023-03-04T12:29:37.844Z,41.10
2023-03-04T12:33:10.950Z,41.00
2023-03-04T12:36:18.315Z,40.10
2023-03-04T12:39:25.961Z,39.00
2023-03-04T12:42:46.417Z,38.40
2023-03-04T12:46:06.915Z,37.50
2023-03-04T12:49:23.739Z,42.70
2023-03-04T12:52:44.351Z,37.20
2023-03-04T12:55:47.224Z,38.90
2023-03-04T12:58:48.997Z,38.90
2023-03-04T13:05:26.565Z,38.30
2023-03-04T13:08:36.844Z,38.80
2023-03-04T13:11:55.855Z,37.70
2023-03-04T13:15:09.811Z,37.50
2023-03-04T13:18:30.507Z,38.30
2023-03-04T13:21:32.236Z,36.50
2023-03-04T13:27:50.943Z,34.00
2023-03-04T13:30:53.249Z,33.70
2023-03-04T13:33:57.400Z,38.50
2023-03-04T13:36:58.973Z,33.10
2023-03-04T13:40:22.646Z,33.50
2023-03-04T13:43:29.440Z,32.60
2023-03-04T13:46:41.545Z,33.10
2023-03-04T13:49:43.199Z,32.80
2023-03-04T13:52:45.038Z,31.20
2023-03-04T13:59:07.027Z,30.90
2023-03-04T14:02:13.749Z,30.20
2023-03-04T14:05:15.470Z,32.10
2023-03-04T14:08:19.144Z,32.90
2023-03-04T14:11:36.717Z,30.60
2023-03-04T14:14:52.832Z,30.20
2023-03-04T14:17:58.958Z,30.20
2023-03-04T14:21:00.868Z,30.00
2023-03-04T14:24:04.153Z,28.50
2023-03-04T14:27:14.018Z,29.90
2023-03-04T14:30:40.824Z,29.20
2023-03-04T14:33:50.028Z,30.60
2023-03-04T14:36:51.704Z,29.70
2023-03-04T14:43:04.055Z,28.80
2023-03-04T14:46:08.751Z,28.60
2023-03-04T14:49:12.161Z,27.20
2023-03-04T14:52:49.910Z,27.30
2023-03-04T14:55:59.035Z,25.70
2023-03-04T14:59:00.630Z,29.20
2023-03-04T15:02:26.105Z,27.90
2023-03-04T15:05:30.545Z,27.30
2023-03-04T15:08:40.279Z,29.90
2023-03-04T15:12:02.468Z,28.40
2023-03-04T15:15:33.056Z,28.30
2023-03-04T15:18:35.028Z,28.00
2023-03-04T15:21:41.156Z,28.30
2023-03-04T15:24:42.845Z,27.40
2023-03-04T15:27:48.612Z,28.90
2023-03-04T15:30:51.284Z,28.40
2023-03-04T15:33:53.035Z,27.10
2023-03-04T15:39:57.646Z,27.50
2023-03-04T15:43:02.043Z,27.40
2023-03-04T15:46:03.813Z,27.50
2023-03-04T15:49:05.495Z,27.10
2023-03-04T15:58:20.575Z,26.60
2023-03-04T16:04:24.214Z,25.30
2023-03-04T16:07:29.429Z,25.30
2023-03-04T16:10:31.173Z,26.20
2023-03-04T16:16:34.344Z,25.70
2023-03-04T16:19:35.953Z,22.90
2023-03-04T16:22:37.834Z,24.70
2023-03-04T16:25:39.466Z,22.80
2023-03-04T16:31:43.438Z,22.70
2023-03-04T16:34:45.025Z,22.90
2023-03-04T16:37:47.494Z,20.90
2023-03-04T16:40:49.098Z,22.90
2023-03-04T16:43:50.736Z,22.90
2023-03-04T16:46:52.274Z,22.20
2023-03-04T16:49:53.900Z,21.30
2023-03-04T16:52:56.208Z,22.30
2023-03-04T16:55:59.986Z,22.00
2023-03-04T16:59:01.823Z,21.80
2023-03-04T17:02:03.550Z,22.70
2023-03-04T17:05:05.714Z,23.20
2023-03-04T17:08:07.294Z,21.40
2023-03-04T17:11:12.576Z,22.40
2023-03-04T17:14:14.346Z,20.90
2023-03-04T17:20:20.565Z,21.80
2023-03-04T17:23:22.321Z,21.20
2023-03-04T17:29:25.572Z,22.00
2023-03-04T17:35:28.868Z,20.90
2023-03-04T17:41:35.049Z,20.80
2023-03-04T17:44:37.696Z,20.80
2023-03-04T17:47:39.321Z,21.10
2023-03-04T17:50:51.060Z,22.40
2023-03-04T17:53:52.814Z,21.00
2023-03-04T17:56:54.449Z,20.10
2023-03-04T18:02:57.842Z,20.50
2023-03-04T18:05:59.457Z,20.20
2023-03-04T18:09:01.173Z,20.40
2023-03-04T18:15:05.067Z,19.50
2023-03-04T18:18:07.120Z,19.90
2023-03-04T18:21:08.912Z,20.50
2023-03-04T18:27:12.199Z,20.20
2023-03-04T18:30:15.922Z,20.10
2023-03-04T18:33:17.677Z,19.50
2023-03-04T18:36:19.434Z,20.30
2023-03-04T18:42:22.667Z,19.20
2023-03-04T18:48:25.894Z,18.80
2023-03-04T18:51:27.497Z,20.30
2023-03-04T18:54:29.149Z,20.10
2023-03-04T18:57:31.121Z,20.80
2023-03-04T19:00:32.765Z,19.70
2023-03-04T19:03:34.688Z,20.30
2023-03-04T19:06:36.500Z,20.90
2023-03-04T19:09:38.234Z,20.40
2023-03-04T19:15:41.675Z,21.40
2023-03-04T19:18:43.439Z,22.80
2023-03-04T19:21:45.294Z,21.30
2023-03-04T19:27:48.538Z,21.80
2023-03-04T19:33:52.113Z,22.10
2023-03-04T19:36:53.738Z,23.10
2023-03-04T19:39:55.364Z,23.30
2023-03-04T19:42:56.986Z,22.60
2023-03-04T19:45:58.492Z,22.80
2023-03-04T19:49:02.197Z,24.70
2023-03-04T19:52:04.899Z,25.50
2023-03-04T19:55:06.714Z,24.80
2023-03-04T19:58:08.344Z,25.20
2023-03-04T20:01:25.985Z,25.90
2023-03-04T20:04:27.612Z,28.10
2023-03-04T20:07:29.390Z,29.60
2023-03-04T20:13:36.209Z,26.80
2023-03-04T20:16:37.879Z,27.70
2023-03-04T20:19:39.518Z,32.40
2023-03-04T20:22:41.360Z,30.00
2023-03-04T20:28:44.577Z,27.10
2023-03-04T20:34:48.145Z,23.40
2023-03-04T20:37:49.922Z,22.10
2023-03-04T20:43:53.105Z,22.80
2023-03-04T20:46:55.225Z,32.30
2023-03-04T20:49:57.175Z,33.00
2023-03-04T20:52:58.781Z,38.60
2023-03-04T20:56:03.206Z,40.70
2023-03-04T20:59:07.249Z,42.70
2023-03-04T21:02:12.367Z,46.40
2023-03-04T21:05:13.897Z,46.40
2023-03-04T21:08:15.496Z,44.10
2023-03-04T21:11:17.893Z,39.00
2023-03-04T21:14:22.307Z,37.80
2023-03-04T21:17:23.884Z,38.30
2023-03-04T21:20:25.579Z,34.40
2023-03-04T21:23:27.359Z,28.50
2023-03-04T21:26:29.001Z,24.30
2023-03-04T21:29:30.513Z,18.50
2023-03-04T21:32:32.163Z,14.40
2023-03-04T21:35:34.530Z,13.50
2023-03-04T21:38:37.910Z,12.00
2023-03-04T21:41:40.372Z,10.50
2023-03-04T21:47:53.013Z,9.20
2023-03-04T21:53:56.266Z,8.20
2023-03-04T21:56:57.944Z,7.70
2023-03-04T21:59:59.484Z,8.00
2023-03-04T22:03:01.080Z,8.00
2023-03-04T22:06:06.665Z,7.90
2023-03-04T22:09:08.294Z,7.60
2023-03-04T22:15:11.876Z,7.00
2023-03-04T22:18:14.146Z,7.90
2023-03-04T22:21:17.903Z,7.60
2023-03-04T22:24:20.264Z,7.80
2023-03-04T22:27:21.811Z,8.40
2023-03-04T22:30:23.412Z,8.80
2023-03-04T22:33:26.091Z,9.20
2023-03-04T22:36:32.799Z,8.60
2023-03-04T22:39:34.395Z,9.00
2023-03-04T22:42:36.198Z,8.20
2023-03-04T22:48:39.386Z,9.70
2023-03-04T22:51:42.940Z,10.10
2023-03-04T22:54:44.659Z,9.30
2023-03-04T23:00:47.854Z,9.60
2023-03-04T23:03:49.485Z,8.70
2023-03-04T23:06:51.130Z,9.50
2023-03-04T23:09:52.664Z,10.50
2023-03-04T23:12:54.303Z,19.60
2023-03-04T23:15:55.832Z,19.60
2023-03-04T23:18:59.435Z,14.70
2023-03-04T23:22:01.366Z,13.20
2023-03-04T23:25:03.000Z,16.80
2023-03-04T23:31:06.362Z,14.60
2023-03-04T23:37:09.744Z,11.60
2023-03-04T23:40:11.893Z,10.40
2023-03-04T23:43:13.423Z,10.60
2023-03-04T23:46:15.520Z,10.50
2023-03-04T23:49:17.321Z,10.80
2023-03-04T23:52:19.066Z,12.60
2023-03-04T23:55:20.830Z,11.60
